Terminal Aerodrome Forecast
Issued by NWS Birmingham, AL

Home | Current Version | Previous Version | Text Only | Print | Product List | Glossary On
Versions: 1 2 3 4 5 6 7 8 9 10 11 12 13 14 15 16 17 18 19 20 21 22 23 24 25
000
FTUS44 KBMX 051932 AAA
TAFBHM
TAF AMD
KBHM 051932Z 0520/0618 23010KT P6SM BKN040
      TEMPO 0520/0521 3SM SHRA BR BKN030
     FM060000 24004KT P6SM BKN050
     FM060900 24003KT P6SM OVC010
     FM061400 25005KT P6SM BKN025=

USA.gov is the U.S. government's official web portal to all federal, state and local government web resources and services.